Impacts TAF Board
For situational awareness. Not to be used for flight planning purposes.
IDs:

KSTL - St Louis/Lambert Int, MO, US

Issued at 1127 UTC 23 Mar 2019
Updated at 1250 UTC 23 Mar 2019
Potential Impact None Slight Moderate High
Time<<24/01Z 24/02Z 24/03Z 24/04Z 24/05Z 24/06Z 24/07Z 24/08Z 24/09Z 24/10Z 24/11Z 24/12Z 24/13Z>>
Type PRVL PRVL PRVL PRVL PRVL PRVL PRVL PRVL PRVL PRVL PRVL PRVL PRVL
VIS >6 >6 >6 >6 >6 >6 >6 >6 >6 >6 >6 >6 >6
CIG 250 250 250 250 45 45 45 45 45 45 45 45 45
Cover BKN BKN BKN BKN OVC OVC OVC OVC OVC OVC OVC OVC OVC
FltCat VFR VFR VFR VFR VFR VFR VFR VFR VFR VFR VFR VFR VFR
WX -- -- -- -- VCSH VCSH VCSH VCSH VCSH VCSH VCSH VCSH VCSH
WDir 140 140 140 140 140 140 140 140 140 140 140 140 140
WSpd 8 8 8 8 7 7 7 7 7 7 7 7 7
WGst -- -- -- -- -- -- -- -- -- -- -- -- --
Raw TAF
KSTL 231127Z 2312/2418 11005KT P6SM BKN200
  FM231700 14008KT P6SM BKN250
  FM240500 14007KT P6SM VCSH OVC045
  FM241500 18008KT P6SM VCSH BKN045


METAR Board
Radar Display
Forecast Discussion
For situational awareness. Not to be used for flight planning purposes.